createdAt,value
2023-05-20T00:01:46.080Z,16.27
2023-05-20T00:04:13.332Z,16.53
2023-05-20T00:06:41.301Z,14.15
2023-05-20T00:09:08.696Z,14.77
2023-05-20T00:11:35.948Z,13.70
2023-05-20T00:14:03.163Z,17.60
2023-05-20T00:16:30.434Z,13.33
2023-05-20T00:18:58.029Z,14.32
2023-05-20T00:21:25.446Z,12.30
2023-05-20T00:23:52.704Z,16.30
2023-05-20T00:26:21.481Z,16.93
2023-05-20T00:28:48.841Z,15.13
2023-05-20T00:31:16.103Z,18.13
2023-05-20T00:33:43.398Z,11.82
2023-05-20T00:36:10.655Z,10.65
2023-05-20T00:38:37.922Z,14.88
2023-05-20T00:41:05.261Z,13.77
2023-05-20T00:43:32.541Z,15.53
2023-05-20T00:45:59.884Z,17.33
2023-05-20T00:48:27.390Z,14.93
2023-05-20T00:50:54.661Z,16.67
2023-05-20T00:53:22.680Z,16.03
2023-05-20T00:55:49.909Z,14.45
2023-05-20T00:58:17.157Z,14.57
2023-05-20T01:00:44.377Z,15.80
2023-05-20T01:03:12.068Z,14.00
2023-05-20T01:05:42.094Z,16.60
2023-05-20T01:08:09.973Z,12.60
2023-05-20T01:10:37.892Z,13.87
2023-05-20T01:13:08.094Z,11.70
2023-05-20T01:15:36.189Z,12.00
2023-05-20T01:18:07.594Z,11.57
2023-05-20T01:20:36.019Z,11.40
2023-05-20T01:23:04.216Z,16.83
2023-05-20T01:25:31.525Z,13.65
2023-05-20T01:27:58.971Z,13.17
2023-05-20T01:30:29.188Z,15.53
2023-05-20T01:33:00.143Z,10.52
2023-05-20T01:35:27.615Z,14.63
2023-05-20T01:37:54.854Z,14.00
2023-05-20T01:40:22.237Z,12.17
2023-05-20T01:42:53.308Z,11.53
2023-05-20T01:45:20.979Z,12.67
2023-05-20T01:47:48.593Z,13.23
2023-05-20T01:50:15.897Z,10.57
2023-05-20T01:52:43.081Z,14.40
2023-05-20T01:55:10.419Z,13.50
2023-05-20T01:57:37.841Z,14.13
2023-05-20T02:00:06.257Z,11.30
2023-05-20T02:02:33.711Z,9.87
2023-05-20T02:05:01.705Z,10.63
2023-05-20T02:07:28.937Z,10.05
2023-05-20T02:09:56.129Z,18.88
2023-05-20T02:12:23.301Z,11.13
2023-05-20T02:14:50.564Z,20.27
2023-05-20T02:17:18.517Z,9.07
2023-05-20T02:19:47.036Z,11.83
2023-05-20T02:22:14.604Z,9.73
2023-05-20T02:24:43.423Z,10.27
2023-05-20T02:27:10.919Z,10.47
2023-05-20T02:29:38.131Z,12.27
2023-05-20T02:32:05.538Z,12.50
2023-05-20T02:34:33.393Z,9.80
2023-05-20T02:37:01.399Z,13.67
2023-05-20T02:39:28.667Z,12.00
2023-05-20T02:41:57.471Z,10.40
2023-05-20T02:44:24.804Z,9.73
2023-05-20T02:46:51.963Z,9.53
2023-05-20T02:49:19.213Z,10.20
2023-05-20T02:51:46.388Z,8.17
2023-05-20T02:54:13.634Z,12.33
2023-05-20T02:56:40.850Z,13.67
2023-05-20T02:59:08.304Z,10.05
2023-05-20T03:01:36.078Z,8.97
2023-05-20T03:04:03.898Z,9.47
2023-05-20T03:06:32.076Z,9.10
2023-05-20T03:08:59.756Z,10.63
2023-05-20T03:11:27.092Z,13.80
2023-05-20T03:13:54.348Z,8.82
2023-05-20T03:16:23.130Z,9.27
2023-05-20T03:18:50.734Z,9.67
2023-05-20T03:21:17.942Z,8.53
2023-05-20T03:23:45.135Z,18.40
2023-05-20T03:26:12.647Z,13.63
2023-05-20T03:28:39.880Z,11.57
2023-05-20T03:31:07.124Z,11.45
2023-05-20T03:33:35.650Z,8.80
2023-05-20T03:36:02.954Z,13.43
2023-05-20T03:38:30.176Z,9.47
2023-05-20T03:40:57.390Z,9.03
2023-05-20T03:43:25.413Z,11.50
2023-05-20T03:45:52.606Z,7.40
2023-05-20T03:48:20.328Z,11.37
2023-05-20T03:50:47.657Z,8.50
2023-05-20T03:53:14.965Z,10.27
2023-05-20T03:55:43.373Z,9.40
2023-05-20T03:58:12.896Z,7.88
2023-05-20T04:00:40.134Z,7.93
2023-05-20T04:03:07.584Z,9.20
2023-05-20T04:05:36.331Z,10.03
2023-05-20T04:08:05.015Z,8.52
2023-05-20T04:10:32.350Z,10.27
2023-05-20T04:12:59.746Z,8.52
2023-05-20T04:15:29.774Z,10.13
2023-05-20T04:17:57.007Z,8.43
2023-05-20T04:20:24.467Z,10.00
2023-05-20T04:22:52.446Z,9.20
2023-05-20T04:25:19.820Z,10.60
2023-05-20T04:27:48.124Z,9.40
2023-05-20T04:30:17.120Z,11.33
2023-05-20T04:32:44.380Z,12.27
2023-05-20T04:35:13.847Z,10.73
2023-05-20T04:37:42.424Z,12.17
2023-05-20T04:40:10.350Z,10.97
2023-05-20T04:42:37.949Z,12.30
2023-05-20T04:45:05.915Z,8.98
2023-05-20T04:47:38.479Z,8.15
2023-05-20T04:50:12.544Z,9.43
2023-05-20T04:52:40.228Z,8.60
2023-05-20T04:55:10.278Z,12.77
2023-05-20T04:57:39.974Z,11.93
2023-05-20T05:00:07.905Z,10.03
2023-05-20T05:02:35.857Z,12.43
2023-05-20T05:05:03.445Z,10.23
2023-05-20T05:07:31.116Z,11.47
2023-05-20T05:09:58.244Z,11.85
2023-05-20T05:12:25.641Z,8.52
2023-05-20T05:14:52.817Z,12.68
2023-05-20T05:17:20.113Z,12.13
2023-05-20T05:19:47.311Z,10.17
2023-05-20T05:22:14.555Z,10.23
2023-05-20T05:24:41.771Z,10.70
2023-05-20T05:27:09.053Z,10.05
2023-05-20T05:29:36.413Z,9.27
2023-05-20T05:32:03.690Z,17.70
2023-05-20T05:34:31.015Z,9.73
2023-05-20T05:36:58.248Z,10.75
2023-05-20T05:39:25.567Z,9.68
2023-05-20T05:41:54.470Z,12.20
2023-05-20T05:44:21.745Z,13.52
2023-05-20T05:46:48.988Z,10.68
2023-05-20T05:49:16.314Z,11.98
2023-05-20T05:51:43.474Z,9.52
2023-05-20T05:54:11.060Z,9.50
2023-05-20T05:56:38.249Z,17.83
2023-05-20T05:59:05.957Z,10.20
2023-05-20T06:01:33.247Z,12.02
2023-05-20T06:04:00.486Z,11.68
2023-05-20T06:06:27.757Z,9.77
2023-05-20T06:08:56.035Z,8.87
2023-05-20T06:11:24.111Z,12.63
2023-05-20T06:13:51.490Z,14.00
2023-05-20T06:16:18.914Z,15.77
2023-05-20T06:18:47.238Z,12.40
2023-05-20T06:21:14.572Z,12.77
2023-05-20T06:23:41.827Z,12.50
2023-05-20T06:26:09.129Z,10.98
2023-05-20T06:28:36.300Z,13.93
2023-05-20T06:31:03.717Z,13.30
2023-05-20T06:33:31.025Z,16.90
2023-05-20T06:36:01.650Z,14.75
2023-05-20T06:38:29.300Z,10.70
2023-05-20T06:40:56.552Z,11.43
2023-05-20T06:43:23.776Z,12.00
2023-05-20T06:45:50.978Z,16.00
2023-05-20T06:48:18.174Z,9.13
2023-05-20T06:50:45.693Z,13.95
2023-05-20T06:53:12.844Z,13.32
2023-05-20T06:55:40.083Z,22.08
2023-05-20T06:58:07.276Z,13.55
2023-05-20T07:00:34.606Z,13.65
2023-05-20T07:03:02.223Z,10.82
2023-05-20T07:05:29.573Z,14.75
2023-05-20T07:07:56.827Z,12.65
2023-05-20T07:10:24.054Z,13.23
2023-05-20T07:12:51.262Z,14.02
2023-05-20T07:15:18.655Z,15.55
2023-05-20T07:17:45.878Z,11.82
2023-05-20T07:20:13.148Z,11.27
2023-05-20T07:22:40.410Z,12.32
2023-05-20T07:25:08.080Z,14.00
2023-05-20T07:27:35.469Z,13.98
2023-05-20T07:30:02.968Z,13.95
2023-05-20T07:32:30.273Z,16.27
2023-05-20T07:34:59.460Z,17.27
2023-05-20T07:37:26.740Z,13.55
2023-05-20T07:39:53.892Z,13.63
2023-05-20T07:42:21.097Z,17.52
2023-05-20T07:44:48.274Z,16.23
2023-05-20T07:47:15.561Z,16.23
2023-05-20T07:49:44.348Z,16.58
2023-05-20T07:52:11.718Z,15.27
2023-05-20T07:54:38.902Z,13.05
2023-05-20T07:57:07.434Z,11.18
2023-05-20T07:59:34.885Z,15.73
2023-05-20T08:02:02.264Z,12.15
2023-05-20T08:04:29.646Z,13.05
2023-05-20T08:06:57.189Z,13.40
2023-05-20T08:09:24.394Z,11.82
2023-05-20T08:11:51.609Z,15.93
2023-05-20T08:14:18.792Z,14.10
2023-05-20T08:16:46.145Z,14.27
2023-05-20T08:19:13.367Z,14.80
2023-05-20T08:21:40.652Z,12.70
2023-05-20T08:24:08.071Z,16.38
2023-05-20T08:26:35.366Z,12.63
2023-05-20T08:29:02.586Z,15.27
2023-05-20T08:31:29.834Z,13.75
2023-05-20T08:33:57.082Z,16.88
2023-05-20T08:36:24.692Z,21.63
2023-05-20T08:38:52.729Z,12.93
2023-05-20T08:41:22.343Z,14.75
2023-05-20T08:43:50.715Z,14.40
2023-05-20T08:46:19.478Z,12.73
2023-05-20T08:48:47.258Z,13.80
2023-05-20T08:51:16.673Z,19.33
2023-05-20T08:53:43.941Z,13.68
2023-05-20T08:56:12.599Z,14.60
2023-05-20T08:58:41.281Z,18.23
2023-05-20T09:01:08.516Z,13.52
2023-05-20T09:03:35.740Z,18.80
2023-05-20T09:06:07.281Z,11.88
2023-05-20T09:08:34.879Z,14.60
2023-05-20T09:11:02.648Z,16.83
2023-05-20T09:13:32.801Z,23.83
2023-05-20T09:16:03.635Z,15.32
2023-05-20T09:18:31.513Z,16.77
2023-05-20T09:20:58.857Z,23.00
2023-05-20T09:23:27.669Z,17.15
2023-05-20T09:25:54.848Z,16.85
2023-05-20T09:28:27.710Z,15.40
2023-05-20T09:31:01.526Z,14.05
2023-05-20T09:33:32.400Z,21.13
2023-05-20T09:36:06.122Z,23.17
2023-05-20T09:38:38.172Z,16.83
2023-05-20T09:41:08.321Z,15.88
2023-05-20T09:43:37.330Z,14.38
2023-05-20T09:46:05.724Z,14.23
2023-05-20T09:48:34.435Z,17.35
2023-05-20T09:51:02.706Z,18.00
2023-05-20T09:53:29.910Z,16.70
2023-05-20T09:55:57.639Z,19.85
2023-05-20T09:58:25.276Z,16.83
2023-05-20T10:00:54.118Z,19.67
2023-05-20T10:03:30.862Z,21.67
2023-05-20T10:05:58.198Z,21.48
2023-05-20T10:08:48.733Z,18.05
2023-05-20T10:11:16.805Z,17.15
2023-05-20T10:14:02.780Z,21.08
2023-05-20T10:16:56.301Z,23.98
2023-05-20T10:19:23.549Z,14.95
2023-05-20T10:22:04.778Z,16.38
2023-05-20T10:24:35.749Z,17.85
2023-05-20T10:27:04.617Z,20.35
2023-05-20T10:29:43.276Z,16.65
2023-05-20T10:32:10.697Z,19.35
2023-05-20T10:34:50.643Z,20.50
2023-05-20T10:37:25.698Z,21.77
2023-05-20T10:39:53.095Z,20.55
2023-05-20T10:42:29.707Z,18.65
2023-05-20T10:44:57.086Z,15.13
2023-05-20T10:47:26.484Z,15.48
2023-05-20T10:49:53.973Z,17.80
2023-05-20T10:52:21.501Z,16.30
2023-05-20T10:54:54.999Z,17.58
2023-05-20T10:57:22.811Z,17.80
2023-05-20T10:59:50.357Z,15.20
2023-05-20T11:02:18.169Z,18.00
2023-05-20T11:04:45.775Z,14.52
2023-05-20T11:07:13.124Z,16.58
2023-05-20T11:09:40.571Z,14.02
2023-05-20T11:12:07.837Z,18.70
2023-05-20T11:14:36.047Z,12.38
2023-05-20T11:17:03.465Z,13.43
2023-05-20T11:19:30.826Z,15.57
2023-05-20T11:21:58.182Z,16.23
2023-05-20T11:24:27.217Z,15.02
2023-05-20T11:26:58.090Z,13.55
2023-05-20T11:29:27.288Z,15.98
2023-05-20T11:31:54.625Z,14.45
2023-05-20T11:34:24.994Z,15.88
2023-05-20T11:36:57.467Z,17.30
2023-05-20T11:39:27.578Z,15.18
2023-05-20T11:41:55.007Z,14.07
2023-05-20T11:44:22.352Z,13.23
2023-05-20T11:46:49.772Z,13.00
2023-05-20T11:49:17.545Z,15.38
2023-05-20T11:51:45.109Z,12.85
2023-05-20T11:54:12.568Z,12.63
2023-05-20T11:56:43.113Z,17.75
2023-05-20T11:59:11.002Z,15.65
2023-05-20T12:01:41.079Z,13.95
2023-05-20T12:04:08.935Z,15.48
2023-05-20T12:06:40.125Z,19.77
2023-05-20T12:09:08.836Z,15.60
2023-05-20T12:11:37.379Z,26.15
2023-05-20T12:14:04.735Z,18.40
2023-05-20T12:16:32.891Z,24.25
2023-05-20T12:19:00.842Z,21.40
2023-05-20T12:21:29.612Z,23.85
2023-05-20T12:23:57.926Z,19.73
2023-05-20T12:26:26.007Z,17.02
2023-05-20T12:28:53.711Z,15.45
2023-05-20T12:31:21.206Z,11.85
2023-05-20T12:33:48.440Z,15.98
2023-05-20T12:36:16.316Z,19.65
2023-05-20T12:38:43.983Z,14.60
2023-05-20T12:41:11.549Z,15.23
2023-05-20T12:43:38.906Z,14.20
2023-05-20T12:46:06.287Z,22.10
2023-05-20T12:48:33.578Z,12.35
2023-05-20T12:51:00.939Z,12.73
2023-05-20T12:53:28.133Z,16.02
2023-05-20T12:55:55.546Z,14.40
2023-05-20T12:58:22.840Z,13.07
2023-05-20T13:00:50.153Z,14.63
2023-05-20T13:03:17.581Z,13.30
2023-05-20T13:05:45.073Z,13.48
2023-05-20T13:08:12.872Z,16.33
2023-05-20T13:10:40.200Z,12.65
2023-05-20T13:13:07.393Z,13.57
2023-05-20T13:15:34.865Z,14.57
2023-05-20T13:18:03.474Z,13.80
2023-05-20T13:20:31.030Z,12.40
2023-05-20T13:22:58.305Z,13.95
2023-05-20T13:25:25.589Z,16.33
2023-05-20T13:27:52.781Z,16.73
2023-05-20T13:30:20.003Z,10.93
2023-05-20T13:32:47.251Z,12.05
2023-05-20T13:35:16.687Z,14.32
2023-05-20T13:37:43.982Z,12.07
2023-05-20T13:40:11.603Z,13.73
2023-05-20T13:42:38.851Z,12.40
2023-05-20T13:45:06.427Z,12.38
2023-05-20T13:47:33.771Z,11.93
2023-05-20T13:50:03.073Z,20.67
2023-05-20T13:52:30.656Z,12.75
2023-05-20T13:54:57.864Z,10.38
2023-05-20T13:57:25.010Z,10.63
2023-05-20T13:59:52.320Z,12.27
2023-05-20T14:02:19.722Z,12.00
2023-05-20T14:04:47.132Z,11.98
2023-05-20T14:07:14.591Z,17.08
2023-05-20T14:09:41.936Z,13.13
2023-05-20T14:12:09.332Z,15.35
2023-05-20T14:14:36.610Z,12.57
2023-05-20T14:17:03.905Z,11.40
2023-05-20T14:19:31.347Z,17.00
2023-05-20T14:22:01.696Z,13.55
2023-05-20T14:24:28.972Z,12.75
2023-05-20T14:26:56.293Z,13.00
2023-05-20T14:29:23.475Z,12.50
2023-05-20T14:31:51.038Z,15.85
2023-05-20T14:34:18.277Z,12.82
2023-05-20T14:36:45.603Z,15.50
2023-05-20T14:39:12.849Z,11.57
2023-05-20T14:41:40.901Z,13.82
2023-05-20T14:44:08.091Z,16.73
2023-05-20T14:46:35.458Z,13.32
2023-05-20T14:49:03.452Z,15.23
2023-05-20T14:51:31.454Z,19.90
2023-05-20T14:53:58.648Z,17.25
2023-05-20T14:56:26.731Z,16.00
2023-05-20T14:58:53.914Z,12.95
2023-05-20T15:01:21.213Z,20.83
2023-05-20T15:03:48.528Z,15.85
2023-05-20T15:06:15.800Z,14.40
2023-05-20T15:08:43.117Z,13.57
2023-05-20T15:11:10.499Z,17.85
2023-05-20T15:13:40.167Z,14.70
2023-05-20T15:16:08.034Z,15.55
2023-05-20T15:18:35.382Z,20.23
2023-05-20T15:21:02.710Z,18.70
2023-05-20T15:23:29.981Z,15.93
2023-05-20T15:25:58.601Z,14.88
2023-05-20T15:28:25.938Z,16.30
2023-05-20T15:30:56.660Z,18.63
2023-05-20T15:33:24.231Z,15.30
2023-05-20T15:35:51.583Z,20.88
2023-05-20T15:38:18.753Z,16.35
2023-05-20T15:40:47.544Z,16.10
2023-05-20T15:43:14.866Z,20.08
2023-05-20T15:45:42.151Z,15.38
2023-05-20T15:48:09.524Z,18.45
2023-05-20T15:50:37.232Z,14.68
2023-05-20T15:53:08.871Z,23.20
2023-05-20T15:55:36.462Z,16.65
2023-05-20T15:58:03.636Z,16.15
2023-05-20T16:00:31.400Z,18.52
2023-05-20T16:02:58.964Z,16.42
2023-05-20T16:05:26.861Z,17.80
2023-05-20T16:07:55.205Z,19.83
2023-05-20T16:10:24.068Z,18.63
2023-05-20T16:12:53.149Z,20.85
2023-05-20T16:15:20.476Z,19.45
2023-05-20T16:17:47.713Z,16.35
2023-05-20T16:20:14.984Z,17.70
2023-05-20T16:22:42.222Z,15.57
2023-05-20T16:25:11.157Z,16.08
2023-05-20T16:27:38.386Z,14.70
2023-05-20T16:30:07.581Z,20.25
2023-05-20T16:32:34.917Z,17.25
2023-05-20T16:35:02.202Z,51.40
2023-05-20T16:37:29.445Z,43.50
2023-05-20T16:39:56.866Z,24.45
2023-05-20T16:42:24.039Z,28.45
2023-05-20T16:44:51.905Z,24.05
2023-05-20T16:47:19.232Z,20.27
2023-05-20T16:49:46.545Z,16.98
2023-05-20T16:52:13.833Z,18.23
2023-05-20T16:54:41.351Z,19.20
2023-05-20T16:57:08.718Z,18.17
2023-05-20T16:59:36.061Z,26.42
2023-05-20T17:02:03.356Z,18.80
2023-05-20T17:04:30.666Z,23.98
2023-05-20T17:06:58.420Z,18.17
2023-05-20T17:09:25.675Z,18.20
2023-05-20T17:11:54.520Z,19.85
2023-05-20T17:14:21.687Z,17.73
2023-05-20T17:16:49.066Z,17.17
2023-05-20T17:19:16.342Z,22.30
2023-05-20T17:21:44.226Z,18.48
2023-05-20T17:24:11.728Z,29.92
2023-05-20T17:26:39.165Z,23.42
2023-05-20T17:29:06.688Z,21.60
2023-05-20T17:31:34.129Z,17.83
2023-05-20T17:34:01.695Z,19.60
2023-05-20T17:36:29.038Z,15.50
2023-05-20T17:38:56.239Z,21.98
2023-05-20T17:41:23.397Z,18.58
2023-05-20T17:43:51.194Z,21.42
2023-05-20T17:46:18.624Z,20.60
2023-05-20T17:48:45.984Z,21.80
2023-05-20T17:51:13.252Z,18.35
2023-05-20T17:53:40.752Z,20.40
2023-05-20T17:56:08.076Z,27.13
2023-05-20T17:58:35.529Z,19.23
2023-05-20T18:01:02.874Z,17.55
2023-05-20T18:03:30.239Z,17.35
2023-05-20T18:05:57.569Z,21.83
2023-05-20T18:08:25.482Z,19.92
2023-05-20T18:10:52.831Z,22.27
2023-05-20T18:13:20.022Z,18.40
2023-05-20T18:15:48.156Z,23.77
2023-05-20T18:18:15.363Z,21.40
2023-05-20T18:20:42.750Z,17.58
2023-05-20T18:23:10.061Z,21.40
2023-05-20T18:25:37.325Z,16.90
2023-05-20T18:28:04.925Z,17.15
2023-05-20T18:30:32.193Z,22.30
2023-05-20T18:32:59.465Z,21.85
2023-05-20T18:35:26.709Z,20.38
2023-05-20T18:37:53.962Z,21.60
2023-05-20T18:40:21.609Z,20.17
2023-05-20T18:42:48.816Z,17.73
2023-05-20T18:45:16.231Z,18.35
2023-05-20T18:47:43.485Z,24.08
2023-05-20T18:50:11.222Z,23.88
2023-05-20T18:52:38.472Z,23.63
2023-05-20T18:55:06.109Z,24.50
2023-05-20T18:57:33.314Z,21.23
2023-05-20T19:00:02.405Z,27.35
2023-05-20T19:02:29.620Z,21.73
2023-05-20T19:04:56.924Z,23.05
2023-05-20T19:07:24.118Z,19.52
2023-05-20T19:09:52.063Z,20.60
2023-05-20T19:12:19.267Z,18.30
2023-05-20T19:14:46.652Z,27.35
2023-05-20T19:17:14.184Z,22.13
2023-05-20T19:19:41.456Z,24.58
2023-05-20T19:22:08.875Z,22.23
2023-05-20T19:24:36.302Z,31.90
2023-05-20T19:27:03.682Z,22.30
2023-05-20T19:29:30.843Z,27.73
2023-05-20T19:31:58.288Z,21.98
2023-05-20T19:34:25.616Z,26.75
2023-05-20T19:36:52.846Z,23.40
2023-05-20T19:39:20.570Z,21.55
2023-05-20T19:41:48.696Z,24.25
2023-05-20T19:44:15.940Z,28.20
2023-05-20T19:46:43.263Z,23.25
2023-05-20T19:49:10.588Z,24.48
2023-05-20T19:51:37.886Z,22.40
2023-05-20T19:54:05.177Z,21.45
2023-05-20T19:56:32.422Z,23.35
2023-05-20T19:59:01.730Z,27.20
2023-05-20T20:01:29.124Z,30.42
2023-05-20T20:03:56.434Z,29.65
2023-05-20T20:06:23.656Z,24.88
2023-05-20T20:08:51.115Z,22.63
2023-05-20T20:11:18.577Z,25.55
2023-05-20T20:13:45.951Z,24.73
2023-05-20T20:16:13.288Z,22.67
2023-05-20T20:18:40.900Z,33.63
2023-05-20T20:21:09.305Z,30.52
2023-05-20T20:23:37.890Z,28.52
2023-05-20T20:26:06.516Z,28.88
2023-05-20T20:28:33.716Z,29.55
2023-05-20T20:31:01.096Z,22.75
2023-05-20T20:33:28.376Z,23.55
2023-05-20T20:35:56.934Z,24.52
2023-05-20T20:38:24.178Z,22.92
2023-05-20T20:40:53.573Z,27.90
2023-05-20T20:43:21.475Z,19.88
2023-05-20T20:45:50.984Z,21.77
2023-05-20T20:48:18.951Z,28.55
2023-05-20T20:50:48.137Z,25.17
2023-05-20T20:53:17.023Z,22.58
2023-05-20T20:55:46.212Z,22.90
2023-05-20T20:58:15.646Z,23.92
2023-05-20T21:00:44.509Z,29.52
2023-05-20T21:03:12.748Z,26.25
2023-05-20T21:05:40.318Z,22.08
2023-05-20T21:08:08.515Z,21.55
2023-05-20T21:10:37.172Z,20.65
2023-05-20T21:13:04.700Z,20.35
2023-05-20T21:15:31.889Z,26.67
2023-05-20T21:17:59.076Z,28.33
2023-05-20T21:20:26.268Z,22.25
2023-05-20T21:22:53.435Z,28.95
2023-05-20T21:25:20.840Z,29.80
2023-05-20T21:27:48.038Z,25.83
2023-05-20T21:30:16.393Z,27.55
2023-05-20T21:32:43.696Z,31.55
2023-05-20T21:35:10.984Z,31.08
2023-05-20T21:37:38.296Z,25.08
2023-05-20T21:40:05.948Z,24.30
2023-05-20T21:42:33.319Z,21.85
2023-05-20T21:45:00.498Z,23.52
2023-05-20T21:47:27.835Z,20.92
2023-05-20T21:49:55.087Z,30.13
2023-05-20T21:52:22.596Z,24.17
2023-05-20T21:54:49.806Z,20.35
2023-05-20T21:57:17.025Z,21.83
2023-05-20T21:59:44.254Z,23.08
2023-05-20T22:02:11.446Z,26.80
2023-05-20T22:04:38.601Z,21.75
2023-05-20T22:07:06.057Z,24.90
2023-05-20T22:09:33.287Z,21.30
2023-05-20T22:12:01.281Z,24.48
2023-05-20T22:14:29.048Z,21.85
2023-05-20T22:16:56.270Z,22.85
2023-05-20T22:19:23.472Z,26.88
2023-05-20T22:21:51.260Z,24.15
2023-05-20T22:24:18.706Z,24.00
2023-05-20T22:26:48.779Z,24.30
2023-05-20T22:29:16.120Z,24.23
2023-05-20T22:31:43.329Z,28.40
2023-05-20T22:34:10.834Z,23.10
2023-05-20T22:36:39.341Z,25.20
2023-05-20T22:39:07.036Z,25.40
2023-05-20T22:41:34.357Z,27.67
2023-05-20T22:44:01.530Z,25.80
2023-05-20T22:46:28.904Z,29.67
2023-05-20T22:48:58.363Z,32.63
2023-05-20T22:51:25.676Z,24.85
2023-05-20T22:53:53.498Z,24.02
2023-05-20T22:56:21.291Z,23.02
2023-05-20T22:58:49.314Z,22.85
2023-05-20T23:01:16.791Z,22.55
2023-05-20T23:03:44.902Z,23.65
2023-05-20T23:06:12.749Z,24.58
2023-05-20T23:08:42.888Z,22.75
2023-05-20T23:11:10.157Z,22.85
2023-05-20T23:13:37.558Z,22.60
2023-05-20T23:16:06.522Z,26.63
2023-05-20T23:18:33.805Z,26.58
2023-05-20T23:21:01.038Z,23.80
2023-05-20T23:23:31.657Z,28.02
2023-05-20T23:25:59.634Z,22.35
2023-05-20T23:28:26.976Z,25.83
2023-05-20T23:30:54.762Z,23.73
2023-05-20T23:33:25.429Z,23.70
2023-05-20T23:35:53.132Z,25.38
2023-05-20T23:38:20.514Z,23.15
2023-05-20T23:40:47.997Z,24.02
2023-05-20T23:43:15.617Z,24.88
2023-05-20T23:45:44.251Z,22.88
2023-05-20T23:48:13.358Z,22.58
2023-05-20T23:50:41.001Z,23.10
2023-05-20T23:53:08.238Z,29.52
2023-05-20T23:55:35.748Z,24.13
2023-05-20T23:58:03.212Z,22.00
